Time;durP1;ratioP1;P1;durP2;ratioP2;P2;SDS_P1;SDS_P2;PMS_P1;PMS_P2;Temp;Humidity;BMP_temperature;BMP_pressure;BME280_temperature;BME280_humidity;BME280_pressure;Samples;Min_cycle;Max_cycle;Signal;HPM_P1;HPM_P2
2022/06/14 00:00:54;;;;;;;10.57;3.88;;;12.30;99.90;;;;;;5094366;28;20039;-74
2022/06/14 00:03:27;;;;;;;9.95;3.80;;;12.30;99.90;;;;;;5103200;28;20128;-73
2022/06/14 00:05:53;;;;;;;8.02;3.80;;;12.30;99.90;;;;;;5074270;28;20043;-73
2022/06/14 00:08:21;;;;;;;9.88;3.63;;;12.30;99.90;;;;;;5080015;28;20048;-74
2022/06/14 00:10:48;;;;;;;9.18;3.70;;;12.20;99.90;;;;;;5082967;28;20390;-73
2022/06/14 00:13:13;;;;;;;10.30;4.07;;;12.20;99.90;;;;;;5076158;28;20036;-73
2022/06/14 00:15:40;;;;;;;10.13;3.67;;;12.10;99.90;;;;;;5105664;28;20462;-73
2022/06/14 00:18:06;;;;;;;12.00;4.13;;;12.10;99.90;;;;;;5108288;28;20039;-73
2022/06/14 00:20:32;;;;;;;10.82;4.32;;;12.10;99.90;;;;;;5079245;28;20368;-73
2022/06/14 00:22:58;;;;;;;12.98;4.90;;;12.00;99.90;;;;;;5081588;28;20126;-72
2022/06/14 00:25:33;;;;;;;15.00;4.82;;;12.00;99.90;;;;;;5085271;28;20067;-74
2022/06/14 00:28:01;;;;;;;10.35;3.92;;;12.00;99.90;;;;;;5083641;28;20666;-73
2022/06/14 00:30:28;;;;;;;10.20;4.38;;;12.10;99.90;;;;;;5079473;28;20044;-73
2022/06/14 00:32:53;;;;;;;11.07;4.00;;;12.10;99.90;;;;;;5102167;28;20070;-72
2022/06/14 00:35:19;;;;;;;8.98;3.53;;;12.00;99.90;;;;;;5071984;28;20401;-73
2022/06/14 00:37:45;;;;;;;13.63;4.50;;;12.00;99.90;;;;;;5104398;28;20080;-72
2022/06/14 00:40:13;;;;;;;11.98;4.85;;;11.90;99.90;;;;;;5098740;28;20040;-73
2022/06/14 00:42:39;;;;;;;8.48;3.67;;;11.90;99.90;;;;;;5074153;28;20483;-73
2022/06/14 00:45:14;;;;;;;10.80;4.20;;;11.90;99.90;;;;;;5107622;28;20481;-74
2022/06/14 00:48:05;;;;;;;10.25;3.70;;;11.90;99.90;;;;;;5100510;28;20739;-73
2022/06/14 00:50:36;;;;;;;10.02;4.55;;;12.00;99.90;;;;;;5094388;28;21827;-73
2022/06/14 00:53:07;;;;;;;10.43;3.85;;;11.90;99.90;;;;;;5080384;28;20115;-73
2022/06/14 00:55:38;;;;;;;9.75;3.78;;;11.90;99.90;;;;;;5098622;28;20075;-72
2022/06/14 00:58:12;;;;;;;8.85;4.00;;;11.90;99.90;;;;;;5103886;28;20046;-73
2022/06/14 01:00:46;;;;;;;13.70;4.05;;;11.90;99.90;;;;;;5092216;28;20079;-74
2022/06/14 01:03:21;;;;;;;9.43;3.85;;;11.80;99.90;;;;;;5094555;28;20054;-73
2022/06/14 01:06:07;;;;;;;10.95;4.15;;;11.80;99.90;;;;;;5083843;28;20040;-74
2022/06/14 01:09:03;;;;;;;11.03;4.40;;;11.80;99.90;;;;;;5075525;28;20387;-73
2022/06/14 01:11:41;;;;;;;10.20;5.35;;;11.70;99.90;;;;;;5082622;28;20479;-74
2022/06/14 01:14:10;;;;;;;9.98;4.95;;;11.70;99.90;;;;;;5088670;28;20062;-75
2022/06/14 01:16:36;;;;;;;9.32;4.60;;;11.70;99.90;;;;;;5088324;28;20067;-73
2022/06/14 01:19:08;;;;;;;10.02;4.50;;;11.60;99.90;;;;;;5104459;28;20093;-73
2022/06/14 01:21:33;;;;;;;12.75;5.10;;;11.60;99.90;;;;;;5098367;28;20054;-74
2022/06/14 01:23:59;;;;;;;10.20;4.93;;;11.50;99.90;;;;;;5100795;28;20111;-73
2022/06/14 01:26:27;;;;;;;10.63;5.00;;;11.50;99.90;;;;;;5086700;28;20452;-74
2022/06/14 01:29:04;;;;;;;10.88;5.03;;;11.40;99.90;;;;;;5096072;28;20556;-73
2022/06/14 01:31:31;;;;;;;11.40;4.45;;;11.50;99.90;;;;;;5093848;28;20190;-74
2022/06/14 01:34:05;;;;;;;14.35;4.90;;;11.40;99.90;;;;;;5099247;28;20052;-74
2022/06/14 01:36:36;;;;;;;11.65;4.47;;;11.50;99.90;;;;;;5083459;28;20044;-73
2022/06/14 01:39:06;;;;;;;12.40;5.47;;;11.40;99.90;;;;;;5098992;28;20040;-73
2022/06/14 01:42:13;;;;;;;11.55;5.20;;;11.50;99.90;;;;;;5099798;28;20052;-73
2022/06/14 01:45:04;;;;;;;10.70;5.47;;;11.50;99.90;;;;;;5103365;28;20109;-74
2022/06/14 01:47:47;;;;;;;13.18;5.22;;;11.50;99.90;;;;;;5106333;28;20093;-74
2022/06/14 01:53:37;;;;;;;14.45;5.45;;;11.40;99.90;;;;;;5095165;28;20127;-73
2022/06/14 01:56:20;;;;;;;12.73;5.70;;;11.40;99.90;;;;;;5103379;28;20512;-73
2022/06/14 01:59:04;;;;;;;13.65;6.28;;;11.40;99.90;;;;;;5108333;28;20047;-74
2022/06/14 02:01:47;;;;;;;15.35;5.80;;;11.40;99.90;;;;;;5104422;28;20044;-73
2022/06/14 02:04:39;;;;;;;17.65;6.13;;;11.50;99.90;;;;;;5088041;28;20391;-73
2022/06/14 02:07:16;;;;;;;12.73;5.82;;;11.50;99.90;;;;;;5099565;28;20475;-74
2022/06/14 02:09:48;;;;;;;13.32;5.65;;;11.50;99.90;;;;;;5079391;28;20483;-73
2022/06/14 02:12:19;;;;;;;14.75;5.63;;;11.60;99.90;;;;;;5077844;28;20040;-73
2022/06/14 02:15:02;;;;;;;11.73;5.70;;;11.60;99.90;;;;;;5094953;28;20043;-74
2022/06/14 02:17:36;;;;;;;11.40;5.82;;;11.60;99.90;;;;;;5084263;28;20047;-74
2022/06/14 02:20:10;;;;;;;14.30;6.07;;;11.50;99.90;;;;;;5073340;28;20050;-73
2022/06/14 02:22:42;;;;;;;12.30;5.10;;;11.50;99.90;;;;;;5103658;28;20075;-74
2022/06/14 02:25:14;;;;;;;12.75;5.80;;;11.50;99.90;;;;;;5077262;28;20504;-74
2022/06/14 02:27:58;;;;;;;14.73;5.30;;;11.60;99.90;;;;;;5096782;28;20036;-74
2022/06/14 02:30:35;;;;;;;11.23;5.55;;;11.50;99.90;;;;;;5095319;28;20059;-73
2022/06/14 02:33:10;;;;;;;12.88;5.78;;;11.50;99.90;;;;;;5111713;28;20105;-73
2022/06/14 02:35:38;;;;;;;10.98;5.25;;;11.50;99.90;;;;;;5077484;28;20143;-74
2022/06/14 02:38:25;;;;;;;11.48;5.38;;;11.50;99.90;;;;;;5109837;28;20054;-74
2022/06/14 02:41:08;;;;;;;12.15;5.28;;;11.40;99.90;;;;;;5109817;28;20470;-73
2022/06/14 02:43:55;;;;;;;11.52;5.45;;;11.40;99.90;;;;;;5107570;28;20508;-73
2022/06/14 02:46:35;;;;;;;13.20;6.15;;;11.40;99.90;;;;;;5092998;28;20043;-73
2022/06/14 02:49:15;;;;;;;11.13;5.80;;;11.30;99.90;;;;;;5090880;28;20074;-73
2022/06/14 02:51:49;;;;;;;12.90;5.85;;;11.30;99.90;;;;;;5109721;28;20039;-73
2022/06/14 02:54:22;;;;;;;12.32;5.55;;;11.30;99.90;;;;;;5106700;28;20050;-73
2022/06/14 02:56:56;;;;;;;12.65;5.90;;;11.20;99.90;;;;;;5076351;28;20055;-73
2022/06/14 02:59:26;;;;;;;11.07;5.13;;;11.20;99.90;;;;;;5089106;28;20072;-74
2022/06/14 03:02:18;;;;;;;11.18;5.32;;;11.20;99.90;;;;;;5088345;28;20383;-72
2022/06/14 03:04:54;;;;;;;12.27;5.70;;;11.20;99.90;;;;;;5110076;28;20036;-73
2022/06/14 03:07:31;;;;;;;11.75;6.00;;;11.20;99.90;;;;;;5110843;28;20054;-74
2022/06/14 03:09:58;;;;;;;13.30;5.70;;;11.20;99.90;;;;;;5081539;28;20058;-73
2022/06/14 03:12:45;;;;;;;15.10;6.55;;;11.20;99.90;;;;;;5071522;28;20040;-73
2022/06/14 03:15:44;;;;;;;11.90;5.80;;;11.20;99.90;;;;;;5092927;28;20088;-73
2022/06/14 03:18:30;;;;;;;11.25;6.38;;;11.20;99.90;;;;;;5110763;28;20044;-74
2022/06/14 03:21:07;;;;;;;12.40;6.15;;;11.30;99.90;;;;;;5075372;28;20043;-74
2022/06/14 03:24:08;;;;;;;13.63;6.40;;;11.30;99.90;;;;;;5078801;28;20086;-73
2022/06/14 03:26:55;;;;;;;13.93;6.60;;;11.40;99.90;;;;;;5053231;28;20083;-73
2022/06/14 03:29:33;;;;;;;12.65;6.40;;;11.50;99.90;;;;;;5104489;28;20044;-74
2022/06/14 03:32:14;;;;;;;11.95;6.40;;;11.40;99.90;;;;;;5090435;28;20060;-73
2022/06/14 03:34:52;;;;;;;14.88;7.25;;;11.50;99.90;;;;;;5106432;28;20079;-73
2022/06/14 03:37:18;;;;;;;;;;;11.50;99.90;;;;;;5074499;28;20079;-73
2022/06/14 03:39:54;;;;;;;17.05;7.38;;;11.40;99.90;;;;;;5071524;28;20008;-73
2022/06/14 03:42:20;;;;;;;10.77;6.60;;;11.40;99.90;;;;;;5105552;28;20043;-73
2022/06/14 03:44:46;;;;;;;12.23;7.05;;;11.40;99.90;;;;;;5092222;28;20043;-74
2022/06/14 03:47:20;;;;;;;14.05;7.10;;;11.50;99.90;;;;;;5088622;28;20054;-73
2022/06/14 03:49:56;;;;;;;13.93;6.60;;;11.50;99.90;;;;;;5083794;28;20036;-73
2022/06/14 03:52:54;;;;;;;15.50;6.90;;;11.60;99.90;;;;;;5085061;28;20043;-73
2022/06/14 03:55:23;;;;;;;16.48;7.43;;;11.60;99.90;;;;;;5091313;28;20060;-74
2022/06/14 03:58:01;;;;;;;14.55;6.75;;;11.60;99.90;;;;;;5107104;28;20040;-74
2022/06/14 04:01:00;;;;;;;12.93;7.25;;;11.60;99.90;;;;;;5108540;28;20040;-75
2022/06/14 04:03:49;;;;;;;11.68;6.72;;;11.60;99.90;;;;;;5108602;28;20070;-73
2022/06/14 04:06:35;;;;;;;12.68;7.28;;;11.60;99.90;;;;;;5109324;28;20039;-73
2022/06/14 04:09:10;;;;;;;13.82;7.10;;;11.60;99.90;;;;;;5109264;28;20047;-72
2022/06/14 04:12:23;;;;;;;13.38;7.13;;;11.60;99.90;;;;;;5107716;28;20062;-73
2022/06/14 04:15:15;;;;;;;10.52;7.18;;;11.60;99.90;;;;;;5077777;28;20056;-73
2022/06/14 04:17:55;;;;;;;15.43;7.88;;;11.60;99.90;;;;;;5101095;28;20071;-74
2022/06/14 04:20:34;;;;;;;17.23;8.25;;;11.60;99.90;;;;;;5108426;28;20043;-74
2022/06/14 04:23:24;;;;;;;16.27;8.20;;;11.60;99.90;;;;;;5101889;28;20043;-74
2022/06/14 04:26:00;;;;;;;14.48;7.88;;;11.60;99.90;;;;;;5071173;28;20143;-73
2022/06/14 04:28:38;;;;;;;15.57;8.65;;;11.60;99.90;;;;;;5089254;28;20087;-75
2022/06/14 04:31:29;;;;;;;13.82;8.10;;;11.60;99.90;;;;;;5090452;28;20254;-73
2022/06/14 04:34:04;;;;;;;14.00;8.65;;;11.70;99.90;;;;;;5096973;28;20158;-73
2022/06/14 04:36:55;;;;;;;14.98;8.73;;;11.70;99.90;;;;;;5093840;28;20131;-73
2022/06/14 04:39:30;;;;;;;13.98;8.73;;;11.70;99.90;;;;;;5088972;28;20040;-74
2022/06/14 04:42:08;;;;;;;13.10;8.55;;;11.60;99.90;;;;;;5098077;28;20487;-73
2022/06/14 04:44:36;;;;;;;;;;;11.70;99.90;;;;;;5099656;28;20032;-74
2022/06/14 04:47:16;;;;;;;14.05;8.57;;;11.60;99.90;;;;;;5096981;28;20015;-73
2022/06/14 04:49:45;;;;;;;12.52;8.65;;;11.60;99.90;;;;;;5086253;28;20098;-74
2022/06/14 04:52:46;;;;;;;15.20;8.82;;;11.70;99.90;;;;;;5078410;28;20050;-73
2022/06/14 04:55:30;;;;;;;14.68;9.48;;;11.80;99.90;;;;;;5070546;28;20052;-74
2022/06/14 04:58:04;;;;;;;12.48;8.80;;;11.80;99.90;;;;;;5107055;28;20372;-74
2022/06/14 05:00:39;;;;;;;13.70;9.15;;;11.90;99.90;;;;;;5107282;28;20118;-73
2022/06/14 05:03:23;;;;;;;17.17;9.68;;;11.90;99.90;;;;;;5107463;28;20494;-74
2022/06/14 05:05:57;;;;;;;16.45;9.65;;;12.10;99.90;;;;;;5090253;28;20628;-73
2022/06/14 05:08:45;;;;;;;16.70;10.07;;;12.10;99.90;;;;;;5089234;28;20550;-73
2022/06/14 05:11:22;;;;;;;14.80;8.75;;;12.10;99.90;;;;;;5107926;28;20043;-73
2022/06/14 05:14:30;;;;;;;13.25;8.55;;;12.20;99.90;;;;;;5087053;28;20056;-74
2022/06/14 05:17:08;;;;;;;16.17;9.10;;;12.20;99.90;;;;;;4984542;28;20505;-73
2022/06/14 05:20:04;;;;;;;12.57;8.82;;;12.30;99.90;;;;;;5085065;28;20043;-74
2022/06/14 05:22:36;;;;;;;12.80;9.40;;;12.40;99.90;;;;;;5086080;28;20066;-73
2022/06/14 05:25:05;;;;;;;15.38;9.60;;;12.50;99.90;;;;;;5082882;28;20049;-72
2022/06/14 05:27:56;;;;;;;12.23;8.73;;;12.50;99.90;;;;;;5090331;28;20044;-73
2022/06/14 05:30:37;;;;;;;14.10;8.85;;;12.60;99.90;;;;;;5101223;28;20064;-73
2022/06/14 05:33:05;;;;;;;14.73;9.00;;;12.70;99.90;;;;;;5075032;28;20457;-73
2022/06/14 05:35:42;;;;;;;16.05;8.55;;;12.80;99.90;;;;;;5104935;28;20122;-73
2022/06/14 05:38:12;;;;;;;16.30;8.45;;;12.90;99.90;;;;;;5107418;28;20052;-74
2022/06/14 05:40:41;;;;;;;13.55;8.05;;;13.00;99.90;;;;;;5105365;28;20048;-72
2022/06/14 05:43:20;;;;;;;15.80;7.47;;;13.00;99.90;;;;;;5082653;28;20544;-73
2022/06/14 05:45:57;;;;;;;15.05;7.10;;;13.10;99.90;;;;;;5079547;28;20044;-72
2022/06/14 05:48:33;;;;;;;13.07;6.80;;;13.20;99.90;;;;;;5094243;28;20071;-75
2022/06/14 05:51:00;;;;;;;15.68;7.07;;;13.20;99.90;;;;;;5101576;28;20048;-73
2022/06/14 05:53:29;;;;;;;;;;;13.30;99.90;;;;;;5085902;28;20039;-73
2022/06/14 05:56:03;;;;;;;12.00;6.47;;;13.30;99.90;;;;;;5085082;28;19985;-73
2022/06/14 05:58:51;;;;;;;14.63;6.80;;;13.40;99.90;;;;;;5103550;28;20049;-74
2022/06/14 06:01:22;;;;;;;13.82;6.53;;;13.50;99.90;;;;;;5076478;28;20123;-73
2022/06/14 06:04:03;;;;;;;11.77;6.50;;;13.60;99.90;;;;;;5106276;28;20040;-73
2022/06/14 06:06:41;;;;;;;12.23;6.55;;;13.70;99.90;;;;;;5082371;28;20123;-74
2022/06/14 06:09:15;;;;;;;12.98;6.35;;;13.70;99.90;;;;;;5108121;28;20047;-74
2022/06/14 06:12:14;;;;;;;16.55;7.28;;;13.80;99.90;;;;;;5104427;28;20059;-77
2022/06/14 06:14:46;;;;;;;13.18;6.50;;;13.90;99.90;;;;;;5066493;28;20055;-73
2022/06/14 06:17:28;;;;;;;13.60;6.22;;;14.00;99.90;;;;;;5098245;28;20055;-74
2022/06/14 06:20:03;;;;;;;15.70;4.22;;;14.10;99.90;;;;;;5106736;28;20558;-74
2022/06/14 06:22:39;;;;;;;14.65;5.10;;;14.10;99.90;;;;;;5096675;28;20051;-73
2022/06/14 06:25:19;;;;;;;14.43;4.65;;;14.20;99.90;;;;;;5094050;28;20367;-74
2022/06/14 06:27:52;;;;;;;15.57;5.60;;;14.20;99.90;;;;;;5079785;28;20044;-74
2022/06/14 06:30:28;;;;;;;14.68;4.95;;;14.30;99.90;;;;;;5094654;28;20474;-73
2022/06/14 06:32:55;;;;;;;11.57;4.43;;;14.40;99.90;;;;;;5102855;28;20040;-74
2022/06/14 06:35:31;;;;;;;12.65;4.38;;;14.50;99.90;;;;;;5095636;28;20040;-74
2022/06/14 06:38:16;;;;;;;10.50;4.15;;;14.50;99.90;;;;;;5100880;28;20083;-73
2022/06/14 06:43:35;;;;;;;13.88;4.57;;;14.60;99.90;;;;;;5096876;28;20403;-74
2022/06/14 06:46:03;;;;;;;10.95;4.10;;;14.70;99.90;;;;;;5075782;28;20058;-73
2022/06/14 06:48:38;;;;;;;13.55;4.03;;;14.70;99.90;;;;;;5085732;28;20368;-73
2022/06/14 06:51:10;;;;;;;14.77;4.22;;;14.70;99.90;;;;;;5091604;28;20051;-74
2022/06/14 06:53:46;;;;;;;11.27;3.90;;;14.80;99.90;;;;;;5093618;28;20035;-74
2022/06/14 06:56:35;;;;;;;12.02;4.00;;;14.80;99.90;;;;;;5101531;28;20043;-74
2022/06/14 06:59:23;;;;;;;13.77;3.70;;;14.90;99.90;;;;;;5082523;28;20052;-74
2022/06/14 07:01:51;;;;;;;12.65;3.67;;;15.00;99.90;;;;;;5089307;28;20048;-73
2022/06/14 07:05:03;;;;;;;11.35;4.00;;;15.10;99.90;;;;;;5105595;28;20135;-74
2022/06/14 07:07:27;;;;;;;11.48;3.58;;;15.20;99.90;;;;;;5081325;28;20047;-73
2022/06/14 07:09:55;;;;;;;11.57;3.60;;;15.30;99.90;;;;;;5106831;28;20042;-73
2022/06/14 07:12:39;;;;;;;10.05;3.40;;;15.30;99.90;;;;;;5105398;28;20156;-73
2022/06/14 07:15:27;;;;;;;9.20;3.15;;;15.40;99.90;;;;;;5086410;28;20697;-73
2022/06/14 07:18:25;;;;;;;11.10;2.95;;;15.40;99.90;;;;;;5083771;28;20123;-75
2022/06/14 07:21:32;;;;;;;9.75;3.38;;;15.40;99.90;;;;;;5083584;28;20069;-75
2022/06/14 07:24:27;;;;;;;10.48;3.05;;;15.40;99.90;;;;;;5026269;28;20061;-77
2022/06/14 07:27:07;;;;;;;10.45;3.47;;;15.50;99.90;;;;;;5100131;28;20036;-75
2022/06/14 07:29:43;;;;;;;13.88;3.50;;;15.60;99.90;;;;;;5082739;28;20039;-74
2022/06/14 07:32:27;;;;;;;10.82;3.60;;;15.60;99.90;;;;;;5091176;28;20064;-74
2022/06/14 07:34:54;;;;;;;9.65;3.00;;;15.70;99.90;;;;;;5081469;28;20048;-74
2022/06/14 07:37:49;;;;;;;10.02;3.15;;;15.70;99.90;;;;;;5098324;28;20096;-76
2022/06/14 07:40:21;;;;;;;10.35;3.25;;;15.80;99.90;;;;;;5094570;28;20209;-76
2022/06/14 07:43:01;;;;;;;9.38;2.72;;;15.80;99.90;;;;;;5093261;28;20044;-74
2022/06/14 07:45:36;;;;;;;9.35;3.40;;;15.90;99.90;;;;;;5091669;28;20487;-75
2022/06/14 07:48:23;;;;;;;9.02;3.10;;;16.00;99.90;;;;;;5106289;28;20051;-74
2022/06/14 07:50:51;;;;;;;11.70;3.15;;;16.00;99.90;;;;;;5109691;28;20055;-72
2022/06/14 07:53:26;;;;;;;12.02;3.60;;;16.00;99.90;;;;;;5085774;28;20054;-74
2022/06/14 07:56:03;;;;;;;8.70;2.88;;;16.00;99.90;;;;;;5088694;28;20536;-73
2022/06/14 07:58:31;;;;;;;10.98;2.70;;;16.00;99.90;;;;;;5086231;28;20147;-73
2022/06/14 08:01:07;;;;;;;8.38;2.55;;;16.10;99.90;;;;;;5084867;28;20089;-75
2022/06/14 08:03:58;;;;;;;9.85;2.25;;;16.20;99.90;;;;;;5097300;28;20119;-76
2022/06/14 08:06:27;;;;;;;8.82;2.75;;;16.20;99.90;;;;;;5082928;28;20047;-75
2022/06/14 08:09:03;;;;;;;8.57;2.65;;;16.20;99.90;;;;;;5089321;28;20043;-74
2022/06/14 08:11:41;;;;;;;8.18;2.60;;;16.20;99.90;;;;;;5099148;28;20047;-74
2022/06/14 08:14:11;;;;;;;8.18;2.78;;;16.20;99.90;;;;;;5090846;28;20043;-73
2022/06/14 08:16:37;;;;;;;6.40;2.22;;;16.30;99.90;;;;;;5097500;28;20044;-73
2022/06/14 08:19:18;;;;;;;6.97;2.40;;;16.20;99.90;;;;;;5071164;28;20044;-74
2022/06/14 08:21:49;;;;;;;9.38;2.17;;;16.20;99.90;;;;;;5076781;28;20047;-73
2022/06/14 08:24:22;;;;;;;6.43;1.80;;;16.20;99.90;;;;;;5104585;28;20380;-72
2022/06/14 08:27:11;;;;;;;8.43;2.65;;;16.20;99.90;;;;;;5108762;28;20044;-74
2022/06/14 08:29:54;;;;;;;8.63;2.78;;;16.20;99.90;;;;;;5104804;28;20195;-76
2022/06/14 08:32:25;;;;;;;8.50;2.45;;;16.20;99.90;;;;;;5104721;28;20522;-74
2022/06/14 08:35:07;;;;;;;9.40;2.60;;;16.20;99.90;;;;;;5103507;28;20043;-71
2022/06/14 08:37:56;;;;;;;7.75;2.40;;;16.40;99.90;;;;;;5107609;28;20035;-75
2022/06/14 08:40:57;;;;;;;9.65;2.33;;;16.50;99.90;;;;;;5025304;28;20056;-75
2022/06/14 08:43:32;;;;;;;6.20;1.98;;;16.60;99.90;;;;;;5054064;28;20044;-76
2022/06/14 08:46:12;;;;;;;7.18;2.20;;;16.50;99.90;;;;;;5109991;28;20051;-75
2022/06/14 08:49:01;;;;;;;7.32;1.95;;;16.50;99.90;;;;;;5104276;28;20040;-75
2022/06/14 08:51:34;;;;;;;7.55;2.42;;;16.50;99.90;;;;;;5098161;28;20402;-74
2022/06/14 08:54:24;;;;;;;5.72;2.10;;;16.40;99.90;;;;;;5104718;28;20039;-74
2022/06/14 08:57:05;;;;;;;7.53;2.10;;;16.40;99.90;;;;;;5071028;28;20135;-75
2022/06/14 08:59:46;;;;;;;5.82;1.92;;;16.30;99.90;;;;;;5093686;28;20075;-76
2022/06/14 09:02:40;;;;;;;6.57;2.00;;;16.40;99.90;;;;;;5084680;28;20105;-75
2022/06/14 09:05:27;;;;;;;6.25;2.03;;;16.60;99.90;;;;;;5082793;28;20036;-75
2022/06/14 09:08:24;;;;;;;7.55;2.22;;;16.90;99.90;;;;;;5073046;28;20139;-75
2022/06/14 09:10:52;;;;;;;7.80;2.35;;;17.20;99.90;;;;;;5088083;28;20123;-77
2022/06/14 09:13:39;;;;;;;10.40;2.28;;;17.40;99.90;;;;;;5087857;28;20047;-74
2022/06/14 09:16:23;;;;;;;10.52;2.35;;;17.60;99.90;;;;;;5078200;28;20133;-75
2022/06/14 09:18:55;;;;;;;6.20;2.42;;;17.60;99.90;;;;;;5078563;28;20079;-76
2022/06/14 09:21:52;;;;;;;5.30;2.03;;;17.70;99.90;;;;;;5106180;28;20050;-75
2022/06/14 09:24:40;;;;;;;8.25;2.00;;;17.60;99.90;;;;;;5081753;28;20040;-76
2022/06/14 09:27:25;;;;;;;8.82;2.05;;;17.50;99.90;;;;;;5068583;28;20166;-75
2022/06/14 09:30:05;;;;;;;8.38;2.47;;;17.30;99.90;;;;;;5103536;28;20463;-74
2022/06/14 09:35:45;;;;;;;;;;;17.20;99.90;;;;;;5088286;28;20105;-73
2022/06/14 09:38:45;;;;;;;5.00;1.80;;;17.20;99.90;;;;;;5087565;28;19973;-74
2022/06/14 09:41:36;;;;;;;6.15;2.10;;;17.30;99.90;;;;;;5069470;28;20044;-75
2022/06/14 09:44:20;;;;;;;6.15;2.10;;;17.60;99.90;;;;;;5075306;28;20044;-75
2022/06/14 09:47:16;;;;;;;5.70;1.70;;;17.90;99.90;;;;;;5086145;28;20052;-73
2022/06/14 09:50:08;;;;;;;6.03;1.90;;;18.20;99.90;;;;;;5080633;28;20051;-74
2022/06/14 09:52:48;;;;;;;7.45;1.63;;;18.40;99.90;;;;;;5099606;28;20063;-73
2022/06/14 09:55:42;;;;;;;7.32;1.90;;;18.60;99.90;;;;;;5084435;28;20047;-72
2022/06/14 09:58:38;;;;;;;8.43;1.95;;;18.70;99.90;;;;;;5084563;28;20048;-73
2022/06/14 10:01:21;;;;;;;5.22;1.40;;;18.70;99.90;;;;;;5075966;28;20055;-71
2022/06/14 10:04:07;;;;;;;4.25;1.30;;;18.60;98.90;;;;;;5092356;28;20051;-72
2022/06/14 10:06:39;;;;;;;5.88;1.48;;;18.40;97.90;;;;;;5051109;28;20459;-72
2022/06/14 10:09:46;;;;;;;5.15;1.60;;;18.30;99.70;;;;;;5100927;28;20036;-71
2022/06/14 10:12:51;;;;;;;5.18;1.98;;;18.20;97.70;;;;;;5107965;28;20047;-71
2022/06/14 10:15:39;;;;;;;9.32;1.90;;;18.20;99.90;;;;;;5088369;28;20494;-71
2022/06/14 10:18:20;;;;;;;5.80;1.55;;;18.40;99.90;;;;;;5108025;28;20046;-71
2022/06/14 10:21:10;;;;;;;8.73;2.10;;;18.70;99.70;;;;;;5075741;28;20044;-72
2022/06/14 10:23:51;;;;;;;6.97;1.95;;;18.80;97.30;;;;;;5108931;28;20159;-72
2022/06/14 10:30:04;;;;;;;4.90;1.63;;;19.10;99.90;;;;;;5106005;28;20044;-80
2022/06/14 10:33:06;;;;;;;6.57;1.80;;;19.30;99.90;;;;;;5088746;28;20040;-79
2022/06/14 10:35:41;;;;;;;5.65;1.58;;;19.50;98.10;;;;;;5075329;28;20437;-75
2022/06/14 10:38:37;;;;;;;5.88;1.70;;;19.40;99.30;;;;;;5101566;28;20036;-75
2022/06/14 10:41:12;;;;;;;4.65;1.58;;;19.40;97.10;;;;;;5081877;28;20044;-76
2022/06/14 10:43:54;;;;;;;5.63;2.00;;;19.30;96.60;;;;;;5078312;28;20053;-76
2022/06/14 10:46:28;;;;;;;6.03;1.40;;;19.10;95.40;;;;;;5092524;28;20529;-77
2022/06/14 10:49:31;;;;;;;5.97;1.95;;;19.10;96.20;;;;;;5090651;28;20079;-75
2022/06/14 10:52:31;;;;;;;5.00;1.83;;;19.00;98.00;;;;;;5095074;28;20056;-79
2022/06/14 10:55:15;;;;;;;4.55;1.40;;;19.10;99.00;;;;;;5104101;28;20486;-80
2022/06/14 10:57:50;;;;;;;8.20;1.88;;;19.30;96.50;;;;;;5103807;28;20391;-75
2022/06/14 11:00:50;;;;;;;5.13;1.55;;;19.60;98.70;;;;;;5105576;28;20046;-81
2022/06/14 11:03:50;;;;;;;4.82;1.73;;;19.90;91.70;;;;;;5096538;28;20044;-81
2022/06/14 11:06:50;;;;;;;4.80;1.40;;;20.00;93.80;;;;;;5102002;28;20048;-78
2022/06/14 11:09:20;;;;;;;5.65;1.60;;;20.10;90.80;;;;;;5089746;28;20105;-80
2022/06/14 11:11:51;;;;;;;6.40;1.73;;;20.10;94.00;;;;;;5097303;28;20044;-82
2022/06/14 11:14:38;;;;;;;5.28;1.40;;;20.10;91.20;;;;;;5091273;28;20048;-83
2022/06/14 11:17:25;;;;;;;4.25;1.73;;;20.00;94.10;;;;;;5091192;28;20091;-77
2022/06/14 11:20:03;;;;;;;4.15;1.60;;;20.00;92.40;;;;;;5076570;28;20048;-73
2022/06/14 11:22:35;;;;;;;3.97;1.45;;;19.80;91.50;;;;;;5090102;28;20051;-76
2022/06/14 11:25:39;;;;;;;5.63;1.77;;;19.60;92.40;;;;;;5090792;28;20597;-74
2022/06/14 11:28:27;;;;;;;3.58;1.50;;;19.40;93.00;;;;;;5103721;28;20383;-77
2022/06/14 11:31:11;;;;;;;7.05;1.90;;;19.30;94.40;;;;;;5099964;28;20105;-77
2022/06/14 11:33:58;;;;;;;6.78;1.50;;;19.30;96.30;;;;;;5097605;28;20059;-78
2022/06/14 11:36:36;;;;;;;4.72;1.60;;;19.40;95.40;;;;;;5081559;28;20043;-82
2022/06/14 11:39:23;;;;;;;4.13;1.50;;;19.70;98.70;;;;;;5075003;28;20035;-77
2022/06/14 11:41:51;;;;;;;3.85;1.40;;;20.00;97.00;;;;;;5097376;28;20084;-75
2022/06/14 11:44:16;;;;;;;;;;;20.30;97.90;;;;;;5089613;28;20087;-76
2022/06/14 11:47:11;;;;;;;6.00;1.37;;;20.50;97.70;;;;;;5094697;28;19993;-75
2022/06/14 11:49:45;;;;;;;4.28;1.30;;;20.90;97.00;;;;;;5058509;28;20048;-74
2022/06/14 11:52:29;;;;;;;3.90;1.50;;;21.00;89.50;;;;;;5088514;28;20044;-73
2022/06/14 11:55:23;;;;;;;7.03;1.60;;;21.10;86.00;;;;;;5089531;28;20048;-72
2022/06/14 11:58:05;;;;;;;3.30;1.20;;;21.20;88.00;;;;;;5106417;28;20122;-74
2022/06/14 12:00:56;;;;;;;5.13;1.80;;;21.20;86.00;;;;;;5108549;28;20047;-74
2022/06/14 12:04:03;;;;;;;3.15;1.17;;;21.10;77.80;;;;;;5106613;28;20047;-76
2022/06/14 12:06:56;;;;;;;7.60;2.15;;;20.90;75.00;;;;;;5059120;28;20056;-76
2022/06/14 12:09:34;;;;;;;6.03;1.58;;;20.70;81.40;;;;;;5104129;28;20093;-74
2022/06/14 12:12:30;;;;;;;6.70;1.60;;;20.50;85.10;;;;;;5095103;28;20035;-73
2022/06/14 12:15:11;;;;;;;3.38;1.40;;;20.40;84.90;;;;;;5097194;28;20051;-73
2022/06/14 12:17:48;;;;;;;4.13;1.45;;;20.20;81.50;;;;;;5072810;28;20052;-75
2022/06/14 12:20:17;;;;;;;5.07;1.70;;;20.20;85.60;;;;;;5108230;28;20051;-75
2022/06/14 12:22:49;;;;;;;5.10;1.40;;;20.10;82.50;;;;;;5084810;28;20044;-75
2022/06/14 12:28:31;;;;;;;3.78;1.40;;;20.00;90.00;;;;;;5094786;28;20052;-75
2022/06/14 12:31:08;;;;;;;5.32;1.50;;;20.00;87.60;;;;;;5108336;28;20063;-75
2022/06/14 12:33:40;;;;;;;5.55;1.40;;;20.00;86.30;;;;;;5108351;28;20054;-76
2022/06/14 12:36:21;;;;;;;3.90;1.30;;;20.10;85.80;;;;;;5085711;28;20048;-75
2022/06/14 12:38:51;;;;;;;5.40;1.50;;;20.20;82.50;;;;;;5103064;28;20044;-75
2022/06/14 12:41:31;;;;;;;3.60;1.40;;;20.20;79.10;;;;;;5107120;28;20051;-75
2022/06/14 12:44:10;;;;;;;4.75;1.50;;;20.30;83.30;;;;;;5108056;28;20589;-76
2022/06/14 12:46:42;;;;;;;4.68;1.50;;;20.50;78.90;;;;;;5103013;28;20898;-75
2022/06/14 12:49:08;;;;;;;3.35;1.50;;;20.60;78.20;;;;;;5087261;28;20044;-75
2022/06/14 12:51:39;;;;;;;3.17;1.40;;;20.80;79.50;;;;;;5069666;28;20051;-75
2022/06/14 12:54:18;;;;;;;5.95;1.40;;;21.00;83.70;;;;;;5088143;28;20127;-75
2022/06/14 12:56:53;;;;;;;4.07;1.55;;;21.10;76.30;;;;;;5072608;28;20510;-75
2022/06/14 12:59:43;;;;;;;3.70;1.30;;;21.10;69.60;;;;;;5069420;28;20048;-75
2022/06/14 13:02:59;;;;;;;5.63;1.90;;;21.20;70.40;;;;;;5093981;28;20043;-74
2022/06/14 13:05:31;;;;;;;4.00;1.20;;;21.30;78.10;;;;;;5064762;28;20090;-75
2022/06/14 13:08:22;;;;;;;3.97;1.50;;;21.60;73.80;;;;;;5096462;28;20051;-75
2022/06/14 13:11:14;;;;;;;5.72;1.58;;;21.90;71.60;;;;;;5087230;28;20040;-74
2022/06/14 13:13:44;;;;;;;3.88;1.60;;;22.00;73.80;;;;;;5087378;28;20059;-74
2022/06/14 13:16:13;;;;;;;6.03;1.63;;;22.20;66.00;;;;;;5075776;28;20071;-75
2022/06/14 13:18:57;;;;;;;5.32;1.45;;;22.30;63.90;;;;;;5078084;28;20100;-75
2022/06/14 13:22:08;;;;;;;6.00;1.52;;;22.30;65.10;;;;;;5085623;28;20035;-76
2022/06/14 13:24:50;;;;;;;5.22;1.58;;;22.20;62.50;;;;;;5092542;28;20047;-75
2022/06/14 13:27:27;;;;;;;3.72;1.50;;;22.00;62.70;;;;;;5092017;28;20043;-75
2022/06/14 13:30:14;;;;;;;4.82;1.50;;;21.90;70.20;;;;;;5106529;28;20044;-75
2022/06/14 13:33:01;;;;;;;3.38;1.30;;;21.90;68.50;;;;;;5099567;28;20080;-75
2022/06/14 13:35:30;;;;;;;3.65;1.33;;;21.90;70.60;;;;;;5087384;28;20129;-75
2022/06/14 13:38:04;;;;;;;5.22;1.58;;;22.10;78.40;;;;;;5099652;28;20051;-77
2022/06/14 13:40:44;;;;;;;5.22;1.27;;;22.30;72.00;;;;;;5089021;28;20044;-76
2022/06/14 13:43:32;;;;;;;4.57;1.50;;;22.40;69.80;;;;;;5075895;28;20131;-76
2022/06/14 13:46:07;;;;;;;3.00;1.23;;;22.40;62.00;;;;;;5106686;28;20054;-76
2022/06/14 13:48:48;;;;;;;3.10;1.30;;;22.40;59.30;;;;;;5086907;28;20608;-74
2022/06/14 13:51:30;;;;;;;6.38;1.85;;;22.20;61.30;;;;;;5088820;28;20043;-76
2022/06/14 13:54:27;;;;;;;3.40;1.40;;;22.10;68.40;;;;;;5069100;28;20048;-75
2022/06/14 13:57:10;;;;;;;;;;;22.10;66.00;;;;;;5094085;28;20047;-77
2022/06/14 13:59:39;;;;;;;6.13;1.50;;;22.10;67.80;;;;;;5087995;28;19972;-75
2022/06/14 14:02:23;;;;;;;4.55;1.20;;;22.00;70.30;;;;;;5106337;28;20054;-75
2022/06/14 14:05:07;;;;;;;3.25;1.20;;;22.10;65.60;;;;;;5107279;28;20040;-76